createdAt,value
2022-12-15T00:00:17.828Z,37.9
2022-12-15T00:05:17.770Z,37.8
2022-12-15T00:10:17.734Z,37.7
2022-12-15T00:15:17.623Z,37.6
2022-12-15T00:20:17.706Z,37.6
2022-12-15T00:25:17.948Z,37.8
2022-12-15T00:30:17.726Z,37.9
2022-12-15T00:35:17.897Z,38.1
2022-12-15T00:40:17.913Z,38.3
2022-12-15T00:45:17.906Z,38.6
2022-12-15T00:50:17.809Z,38.7
2022-12-15T00:55:17.823Z,38.8
2022-12-15T01:00:17.778Z,38.7
2022-12-15T01:05:17.807Z,38.8
2022-12-15T01:10:18.216Z,39.0
2022-12-15T01:15:18.130Z,39.1
2022-12-15T01:20:17.897Z,39.1
2022-12-15T01:25:18.016Z,39.1
2022-12-15T01:30:18.046Z,39.5
2022-12-15T01:35:18.002Z,39.6
2022-12-15T01:40:17.996Z,39.4
2022-12-15T01:45:18.408Z,38.9
2022-12-15T01:50:17.984Z,38.7
2022-12-15T01:55:17.981Z,38.8
2022-12-15T02:00:18.081Z,39.1
2022-12-15T02:05:17.964Z,39.1
2022-12-15T02:10:18.364Z,39.1
2022-12-15T02:15:17.884Z,39.0
2022-12-15T02:20:18.131Z,39.1
2022-12-15T02:25:18.427Z,39.3
2022-12-15T02:30:18.104Z,39.3
2022-12-15T02:35:18.078Z,39.4
2022-12-15T02:40:19.464Z,39.5
2022-12-15T02:45:18.069Z,39.8
2022-12-15T02:50:18.152Z,39.7
2022-12-15T02:55:18.696Z,39.7
2022-12-15T03:00:18.157Z,39.7
2022-12-15T03:05:18.183Z,39.7
2022-12-15T03:10:16.252Z,39.7
2022-12-15T03:15:17.067Z,39.8
2022-12-15T03:20:16.601Z,40.0
2022-12-15T03:25:16.445Z,40.0
2022-12-15T03:30:16.523Z,40.2
2022-12-15T03:35:16.439Z,40.5
2022-12-15T03:40:16.405Z,40.6
2022-12-15T03:45:16.305Z,40.6
2022-12-15T03:50:16.357Z,40.4
2022-12-15T03:55:16.578Z,40.1
2022-12-15T04:00:16.335Z,40.0
2022-12-15T04:05:16.441Z,39.7
2022-12-15T04:10:16.465Z,39.5
2022-12-15T04:15:16.402Z,39.5
2022-12-15T04:20:16.512Z,39.2
2022-12-15T04:25:16.452Z,39.3
2022-12-15T04:30:16.471Z,39.2
2022-12-15T04:35:16.422Z,39.5
2022-12-15T04:40:16.913Z,40.2
2022-12-15T04:45:20.520Z,40.8
2022-12-15T04:50:16.503Z,41.0
2022-12-15T04:55:16.582Z,40.9
2022-12-15T05:00:17.467Z,41.1
2022-12-15T05:05:17.712Z,41.1
2022-12-15T05:10:17.985Z,41.2
2022-12-15T05:15:17.569Z,41.0
2022-12-15T05:20:17.635Z,40.9
2022-12-15T05:25:17.607Z,40.5
2022-12-15T05:30:17.594Z,40.8
2022-12-15T05:35:17.630Z,41.0
2022-12-15T05:40:17.788Z,41.6
2022-12-15T05:45:17.779Z,42.0
2022-12-15T05:50:17.749Z,41.4
2022-12-15T05:55:17.839Z,41.2
2022-12-15T06:00:17.676Z,41.1
2022-12-15T06:05:17.692Z,41.4
2022-12-15T06:10:17.903Z,41.5
2022-12-15T06:15:17.857Z,40.9
2022-12-15T06:20:17.891Z,40.8
2022-12-15T06:25:17.892Z,40.6
2022-12-15T06:30:17.898Z,40.5
2022-12-15T06:35:17.747Z,40.8
2022-12-15T06:40:17.838Z,40.9
2022-12-15T06:45:17.760Z,41.3
2022-12-15T06:50:17.853Z,41.2
2022-12-15T06:55:18.157Z,40.8
2022-12-15T07:00:18.090Z,40.3
2022-12-15T07:05:17.831Z,40.5
2022-12-15T07:10:17.965Z,41.1
2022-12-15T07:15:18.077Z,41.5
2022-12-15T07:20:18.104Z,41.7
2022-12-15T07:25:19.628Z,41.9
2022-12-15T07:30:18.102Z,41.8
2022-12-15T07:35:17.913Z,41.6
2022-12-15T07:40:18.173Z,41.6
2022-12-15T07:45:18.119Z,41.4
2022-12-15T07:50:18.849Z,41.5
2022-12-15T07:55:27.803Z,41.5
2022-12-15T08:00:18.285Z,41.1
2022-12-15T08:05:17.918Z,41.1
2022-12-15T08:10:18.627Z,41.0
2022-12-15T08:15:18.136Z,41.1
2022-12-15T08:20:18.599Z,41.0
2022-12-15T08:25:18.352Z,41.3
2022-12-15T08:30:18.162Z,41.7
2022-12-15T08:35:47.009Z,41.8
2022-12-15T08:40:20.132Z,41.3
2022-12-15T08:45:18.144Z,41.3
2022-12-15T08:50:16.292Z,41.6
2022-12-15T08:55:22.170Z,41.8
2022-12-15T09:00:16.252Z,41.9
2022-12-15T09:05:16.941Z,41.6
2022-12-15T09:10:16.502Z,41.6
2022-12-15T09:15:16.179Z,41.5
2022-12-15T09:20:17.948Z,41.3
2022-12-15T09:25:16.459Z,41.3
2022-12-15T09:30:16.257Z,41.6
2022-12-15T09:35:16.568Z,41.6
2022-12-15T09:40:16.416Z,41.2
2022-12-15T09:45:16.591Z,41.1
2022-12-15T09:50:16.525Z,41.3
2022-12-15T09:55:16.526Z,41.3
2022-12-15T10:00:16.459Z,41.6
2022-12-15T10:05:16.574Z,41.7
2022-12-15T10:10:16.539Z,41.9
2022-12-15T10:15:16.364Z,41.9
2022-12-15T10:20:16.695Z,41.7
2022-12-15T10:25:16.619Z,41.7
2022-12-15T10:30:16.924Z,41.7
2022-12-15T10:35:16.514Z,41.8
2022-12-15T10:40:16.943Z,41.8
2022-12-15T10:45:16.521Z,41.8
2022-12-15T10:50:20.967Z,41.8
2022-12-15T10:55:16.816Z,42.1
2022-12-15T11:00:16.582Z,41.7
2022-12-15T11:05:16.563Z,41.4
2022-12-15T11:10:16.813Z,41.7
2022-12-15T11:15:16.585Z,41.8
2022-12-15T11:20:16.637Z,41.7
2022-12-15T11:25:16.690Z,41.7
2022-12-15T11:30:16.928Z,41.8
2022-12-15T11:35:16.659Z,41.8
2022-12-15T11:40:17.007Z,42.0
2022-12-15T11:45:16.980Z,42.1
2022-12-15T11:50:16.762Z,42.0
2022-12-15T11:55:16.812Z,42.1
2022-12-15T12:00:16.755Z,42.0
2022-12-15T12:05:16.870Z,41.9
2022-12-15T12:10:16.897Z,42.0
2022-12-15T12:15:16.761Z,42.1
2022-12-15T12:20:16.881Z,42.3
2022-12-15T12:25:16.858Z,42.2
2022-12-15T12:30:16.932Z,42.4
2022-12-15T12:35:30.723Z,42.3
2022-12-15T12:36:22.427Z,42.3
2022-12-15T12:40:17.178Z,42.4
2022-12-15T12:45:16.819Z,42.4
2022-12-15T12:50:17.360Z,42.6
2022-12-15T12:55:17.761Z,42.7
2022-12-15T13:00:17.193Z,42.5
2022-12-15T13:05:16.901Z,42.4
2022-12-15T13:10:17.611Z,42.5
2022-12-15T13:15:17.016Z,42.6
2022-12-15T13:20:17.062Z,42.6
2022-12-15T13:25:17.059Z,42.8
2022-12-15T13:30:17.051Z,42.8
2022-12-15T13:35:17.069Z,43.0
2022-12-15T13:40:17.131Z,42.8
2022-12-15T13:45:17.236Z,42.7
2022-12-15T13:50:17.042Z,42.9
2022-12-15T13:55:20.227Z,42.7
2022-12-15T14:00:17.443Z,42.6
2022-12-15T14:05:17.322Z,42.7
2022-12-15T14:10:17.142Z,42.7
2022-12-15T14:15:17.063Z,42.7
2022-12-15T14:20:17.467Z,42.7
2022-12-15T14:25:17.345Z,42.7
2022-12-15T14:30:17.242Z,42.7
2022-12-15T14:35:17.153Z,42.8
2022-12-15T14:40:17.432Z,42.7
2022-12-15T14:45:17.339Z,42.7
2022-12-15T14:50:23.240Z,42.9
2022-12-15T14:55:17.375Z,43.0
2022-12-15T15:00:17.359Z,42.9
2022-12-15T15:05:17.282Z,42.8
2022-12-15T15:10:17.635Z,42.7
2022-12-15T15:15:17.532Z,42.7
2022-12-15T15:20:17.414Z,42.9
2022-12-15T15:25:17.348Z,42.9
2022-12-15T15:30:17.568Z,42.7
2022-12-15T15:35:17.307Z,42.7
2022-12-15T15:40:17.699Z,42.8
2022-12-15T15:45:17.413Z,42.7
2022-12-15T15:50:17.427Z,42.5
2022-12-15T15:55:17.705Z,42.4
2022-12-15T16:00:17.532Z,42.4
2022-12-15T16:05:17.817Z,42.4
2022-12-15T16:10:18.398Z,42.4
2022-12-15T16:15:17.489Z,42.6
2022-12-15T16:20:17.702Z,42.5
2022-12-15T16:25:17.772Z,42.5
2022-12-15T16:30:17.571Z,42.3
2022-12-15T16:35:17.444Z,42.3
2022-12-15T16:40:17.977Z,42.4
2022-12-15T16:45:17.561Z,42.4
2022-12-15T16:50:17.652Z,42.5
2022-12-15T16:55:17.632Z,42.5
2022-12-15T17:00:17.694Z,42.5
2022-12-15T17:05:17.641Z,42.7
2022-12-15T17:10:17.773Z,42.6
2022-12-15T17:15:17.723Z,42.7
2022-12-15T17:20:33.410Z,42.9
2022-12-15T17:25:27.131Z,42.8
2022-12-15T17:30:17.936Z,42.9
2022-12-15T17:35:17.705Z,42.9
2022-12-15T17:40:17.864Z,43.1
2022-12-15T17:45:17.812Z,43.2
2022-12-15T17:50:17.917Z,43.2
2022-12-15T17:55:17.777Z,43.1
2022-12-15T18:00:17.936Z,42.9
2022-12-15T18:05:17.772Z,42.7
2022-12-15T18:10:18.022Z,42.7
2022-12-15T18:15:17.819Z,42.8
2022-12-15T18:20:17.791Z,43.0
2022-12-15T18:25:17.992Z,43.0
2022-12-15T18:30:17.813Z,43.0
2022-12-15T18:35:18.015Z,43.3
2022-12-15T18:40:18.222Z,43.2
2022-12-15T18:45:17.840Z,43.3
2022-12-15T18:50:17.954Z,42.7
2022-12-15T18:55:17.890Z,42.6
2022-12-15T19:00:18.135Z,42.8
2022-12-15T19:05:17.906Z,42.8
2022-12-15T19:10:18.233Z,43.1
2022-12-15T19:15:17.938Z,42.8
2022-12-15T19:20:18.021Z,42.9
2022-12-15T19:25:23.371Z,42.7
2022-12-15T19:30:18.100Z,42.6
2022-12-15T19:35:18.264Z,42.7
2022-12-15T19:40:18.454Z,42.7
2022-12-15T19:45:18.225Z,42.4
2022-12-15T19:50:18.532Z,42.4
2022-12-15T19:55:18.141Z,42.2
2022-12-15T20:00:18.124Z,42.5
2022-12-15T20:05:18.535Z,42.1
2022-12-15T20:10:23.308Z,42.2
2022-12-15T20:15:18.106Z,42.6
2022-12-15T20:20:18.133Z,42.9
2022-12-15T20:25:16.307Z,42.9
2022-12-15T20:30:16.175Z,43.1
2022-12-15T20:35:16.157Z,42.9
2022-12-15T20:40:16.562Z,43.1
2022-12-15T20:45:16.343Z,43.1
2022-12-15T20:50:16.230Z,43.1
2022-12-15T20:55:16.277Z,43.2
2022-12-15T21:00:16.572Z,43.3
2022-12-15T21:05:16.245Z,43.4
2022-12-15T21:10:16.407Z,43.5
2022-12-15T21:15:16.365Z,43.4
2022-12-15T21:20:16.385Z,43.7
2022-12-15T21:25:16.384Z,43.6
2022-12-15T21:30:16.912Z,43.6
2022-12-15T21:35:16.332Z,43.6
2022-12-15T21:40:16.640Z,43.5
2022-12-15T21:45:16.357Z,43.7
2022-12-15T21:50:16.776Z,43.7
2022-12-15T21:55:16.527Z,43.7
2022-12-15T22:00:16.460Z,43.9
2022-12-15T22:05:16.477Z,43.6
2022-12-15T22:10:16.708Z,43.6
2022-12-15T22:15:16.616Z,43.6
2022-12-15T22:20:16.498Z,43.7
2022-12-15T22:25:16.810Z,43.6
2022-12-15T22:30:16.551Z,43.3
2022-12-15T22:35:16.544Z,43.2
2022-12-15T22:40:16.639Z,43.1
2022-12-15T22:45:16.672Z,43.2
2022-12-15T22:50:16.803Z,42.8
2022-12-15T22:55:17.385Z,43.0
2022-12-15T23:00:16.857Z,43.3
2022-12-15T23:05:16.615Z,43.6
2022-12-15T23:10:17.814Z,43.4
2022-12-15T23:15:19.977Z,43.3
2022-12-15T23:20:16.895Z,43.4
2022-12-15T23:25:16.739Z,43.8
2022-12-15T23:30:16.853Z,43.7
2022-12-15T23:35:16.964Z,43.3
2022-12-15T23:40:16.749Z,43.6
2022-12-15T23:45:16.769Z,43.5
2022-12-15T23:50:16.889Z,44.0
2022-12-15T23:55:16.772Z,44.2
